Langenes — LAOG5 — position and weather

sailwx.info

Track history (hours):
 
Tides and Currents Weather Stations Pressure Air Temp Water Temp Dewpoint Dewpoint Depression Visibility Wind Speed Wind Dir Waves Ship Positions

Langenes

Last reported at 2014-Jan-21 23:31 UTC. Time now 2014-Dec-20 20:52 UTC.
Position N 40°18' E 014°06'.
Warning: this ship's position is months out of date.

Length 95 m; draft 7.5 m.

Type: Cargo ship. MMSI: 257548000.

Date/timePositionNaut miles runAvg speedWind from/ knotsBaromVisibWave heightAir tempDewpointWater temp
2014-Jan-21 23:31N 40°18' E 014°06'9 9.4
2014-Jan-21 22:33N 40°26' E 013°59'10 9.6
2014-Jan-21 21:33N 40°34' E 013°53'9 9.3
2014-Jan-21 20:33N 40°42' E 013°47'9 9.4
2014-Jan-21 19:33N 40°51' E 013°43'1010.0
2014-Jan-21 18:32N 41°01' E 013°38'  
2014-Jan-16 17:31N 43°18' E 010°17'1010.9
2014-Jan-16 16:33N 43°28' E 010°14'6 5.6
2014-Jan-16 15:33N 43°33' E 010°18'0 0.0
2014-Jan-16 14:33N 43°33' E 010°18'0 0.0
2014-Jan-16 13:33N 43°33' E 010°18'0 0.0
2014-Jan-16 12:33N 43°33' E 010°18'0 0.0
2014-Jan-16 11:30N 43°33' E 010°18'0 0.0
2014-Jan-16 10:33N 43°33' E 010°18'0 0.0
2014-Jan-16 09:33N 43°33' E 010°18'0 0.0
2014-Jan-16 08:33N 43°33' E 010°18'0 0.0
2014-Jan-16 07:33N 43°33' E 010°18'0 0.0
2014-Jan-16 06:33N 43°33' E 010°18'0 0.0
2014-Jan-16 05:33N 43°33' E 010°18'0 0.0
2014-Jan-16 04:33N 43°33' E 010°18'0 0.0
2014-Jan-16 02:30N 43°33' E 010°18'0 0.0
2014-Jan-16 01:33N 43°33' E 010°18'0 0.0
2014-Jan-16 00:33N 43°33' E 010°18'0 0.0
2014-Jan-15 23:33N 43°33' E 010°18'0 0.0
2014-Jan-15 22:33N 43°33' E 010°18'0 0.0
2014-Jan-15 21:33N 43°33' E 010°18'0 0.0
2014-Jan-15 20:33N 43°33' E 010°18'0 0.0
2014-Jan-15 16:33N 43°33' E 010°18'0 0.0
2014-Jan-15 13:33N 43°33' E 010°18'0 0.0
2014-Jan-15 05:18N 43°33' E 010°18'0 0.0
2014-Jan-15 04:18N 43°33' E 010°18'0 0.0
2014-Jan-15 03:24N 43°33' E 010°18'0 0.0
2014-Jan-15 02:30N 43°33' E 010°18'0 0.0
2014-Jan-15 01:32N 43°33' E 010°18'0 0.0
2014-Jan-15 00:17N 43°33' E 010°18'0 0.0
2014-Jan-14 23:23N 43°33' E 010°18'0 0.0
2014-Jan-14 22:26N 43°33' E 010°18'0 0.0
2014-Jan-14 21:23N 43°33' E 010°18'0 0.0
2014-Jan-14 20:32N 43°33' E 010°18'0 0.0
2014-Jan-14 19:32N 43°33' E 010°18'0 0.0
2014-Jan-14 18:32N 43°33' E 010°18'0 0.0
2014-Jan-14 17:32N 43°33' E 010°18'0 0.0
2014-Jan-14 16:32N 43°33' E 010°18'0 0.0
2014-Jan-14 15:32N 43°33' E 010°18'0 0.0
2014-Jan-14 14:32N 43°33' E 010°18'0 0.0
2014-Jan-14 13:32N 43°33' E 010°18'0 0.0
2014-Jan-14 12:32N 43°33' E 010°18'0 0.0
2014-Jan-14 11:32N 43°33' E 010°18'0 0.0
2014-Jan-14 10:32N 43°33' E 010°18'0 0.0
2014-Jan-14 09:32N 43°33' E 010°18'0 0.0
2014-Jan-14 08:32N 43°33' E 010°18'0 0.0
2014-Jan-14 07:32N 43°33' E 010°18'0 0.0
2014-Jan-14 06:32N 43°33' E 010°18'0 0.0
2014-Jan-14 05:32N 43°33' E 010°18'0 0.0
2014-Jan-14 04:32N 43°33' E 010°18'0 0.0
2014-Jan-14 03:32N 43°33' E 010°18'0 0.0
2014-Jan-14 02:32N 43°33' E 010°18'0 0.0
2014-Jan-14 01:32N 43°33' E 010°18'0 0.0
2014-Jan-14 00:23N 43°33' E 010°18'0 0.0
2014-Jan-13 23:32N 43°33' E 010°18'0 0.0
2014-Jan-13 22:32N 43°33' E 010°18'0 0.0
2014-Jan-13 21:32N 43°33' E 010°18'0 0.0
2014-Jan-13 20:32N 43°33' E 010°18'0 0.0
2014-Jan-13 19:32N 43°33' E 010°18'0 0.0
2014-Jan-13 18:29N 43°33' E 010°18'0 0.0
2014-Jan-13 17:32N 43°33' E 010°18'0 0.0
2014-Jan-13 16:32N 43°33' E 010°18'0 0.0
2014-Jan-13 15:32N 43°33' E 010°18'0 0.0
2014-Jan-13 14:32N 43°33' E 010°18'0 0.0
2014-Jan-13 13:31N 43°33' E 010°18'0 0.0
2014-Jan-13 12:32N 43°33' E 010°18'0 0.0
2014-Jan-13 11:31N 43°33' E 010°18'0 0.0
2014-Jan-13 10:28N 43°33' E 010°18'0 0.0
2014-Jan-13 09:28N 43°33' E 010°18'0 0.0
2014-Jan-13 08:31N 43°33' E 010°18'0 0.0
2014-Jan-13 07:31N 43°33' E 010°18'0 0.0
2014-Jan-13 06:31N 43°33' E 010°18'1 0.9
2014-Jan-13 05:33N 43°32' E 010°17'2 1.9
2014-Jan-13 04:29N 43°30' E 010°17'0 0.0
2014-Jan-13 03:32N 43°30' E 010°17'0 0.0
2014-Jan-13 02:32N 43°30' E 010°17'0 0.0
2014-Jan-13 01:32N 43°30' E 010°17'0 0.0
2014-Jan-13 00:32N 43°30' E 010°17'0 0.0
2014-Jan-12 23:32N 43°30' E 010°17'0 0.0
2014-Jan-12 22:32N 43°30' E 010°17'0 0.0
2014-Jan-12 21:32N 43°30' E 010°17'0 0.0
2014-Jan-12 20:32N 43°30' E 010°17'0 0.0
2014-Jan-12 19:32N 43°30' E 010°17'0 0.0
2014-Jan-12 18:32N 43°30' E 010°17'0 0.0
2014-Jan-12 17:32N 43°30' E 010°17'0 0.0
2014-Jan-12 16:32N 43°30' E 010°17'0 0.0
2014-Jan-12 15:32N 43°30' E 010°18'0 0.0
2014-Jan-12 14:32N 43°30' E 010°17'0 0.0
2014-Jan-12 13:32N 43°30' E 010°17'0 0.1
2014-Jan-12 12:32N 43°30' E 010°17'6 5.9
2014-Jan-12 11:33N 43°26' E 010°13'1111.1
2014-Jan-12 10:33N 43°15' E 010°09'1210.7
2014-Jan-12 09:27N 43°03' E 010°04'2510.9
2014-Jan-12 07:10N 42°40' E 009°55'  
Track history (hours):
 
Tides and Currents Weather Stations Pressure Air Temp Water Temp Dewpoint Dewpoint Depression Visibility Wind Speed Wind Dir Waves Ship Positions

Langenes

Last reported at 2014-Jan-21 23:31 UTC. Time now 2014-Dec-20 20:52 UTC.
Position N 40°18' E 014°06'.
Warning: this ship's position is months out of date.

Length 95 m; draft 7.5 m.

Type: Cargo ship. MMSI: 257548000.

Date/timePositionNaut miles runAvg speedWind from/ knotsBaromVisibWave heightAir tempDewpointWater temp
2014-Jan-21 23:31N 40°18' E 014°06'9 9.4
2014-Jan-21 22:33N 40°26' E 013°59'10 9.6
2014-Jan-21 21:33N 40°34' E 013°53'9 9.3
2014-Jan-21 20:33N 40°42' E 013°47'9 9.4
2014-Jan-21 19:33N 40°51' E 013°43'1010.0
2014-Jan-21 18:32N 41°01' E 013°38'  
2014-Jan-16 17:31N 43°18' E 010°17'1010.9
2014-Jan-16 16:33N 43°28' E 010°14'6 5.6
2014-Jan-16 15:33N 43°33' E 010°18'0 0.0
2014-Jan-16 14:33N 43°33' E 010°18'0 0.0
2014-Jan-16 13:33N 43°33' E 010°18'0 0.0
2014-Jan-16 12:33N 43°33' E 010°18'0 0.0
2014-Jan-16 11:30N 43°33' E 010°18'0 0.0
2014-Jan-16 10:33N 43°33' E 010°18'0 0.0
2014-Jan-16 09:33N 43°33' E 010°18'0 0.0
2014-Jan-16 08:33N 43°33' E 010°18'0 0.0
2014-Jan-16 07:33N 43°33' E 010°18'0 0.0
2014-Jan-16 06:33N 43°33' E 010°18'0 0.0
2014-Jan-16 05:33N 43°33' E 010°18'0 0.0
2014-Jan-16 04:33N 43°33' E 010°18'0 0.0
2014-Jan-16 02:30N 43°33' E 010°18'0 0.0
2014-Jan-16 01:33N 43°33' E 010°18'0 0.0
2014-Jan-16 00:33N 43°33' E 010°18'0 0.0
2014-Jan-15 23:33N 43°33' E 010°18'0 0.0
2014-Jan-15 22:33N 43°33' E 010°18'0 0.0
2014-Jan-15 21:33N 43°33' E 010°18'0 0.0
2014-Jan-15 20:33N 43°33' E 010°18'0 0.0
2014-Jan-15 16:33N 43°33' E 010°18'0 0.0
2014-Jan-15 13:33N 43°33' E 010°18'0 0.0
2014-Jan-15 05:18N 43°33' E 010°18'0 0.0
2014-Jan-15 04:18N 43°33' E 010°18'0 0.0
2014-Jan-15 03:24N 43°33' E 010°18'0 0.0
2014-Jan-15 02:30N 43°33' E 010°18'0 0.0
2014-Jan-15 01:32N 43°33' E 010°18'0 0.0
2014-Jan-15 00:17N 43°33' E 010°18'0 0.0
2014-Jan-14 23:23N 43°33' E 010°18'0 0.0
2014-Jan-14 22:26N 43°33' E 010°18'0 0.0
2014-Jan-14 21:23N 43°33' E 010°18'0 0.0
2014-Jan-14 20:32N 43°33' E 010°18'0 0.0
2014-Jan-14 19:32N 43°33' E 010°18'0 0.0
2014-Jan-14 18:32N 43°33' E 010°18'0 0.0
2014-Jan-14 17:32N 43°33' E 010°18'0 0.0
2014-Jan-14 16:32N 43°33' E 010°18'0 0.0
2014-Jan-14 15:32N 43°33' E 010°18'0 0.0
2014-Jan-14 14:32N 43°33' E 010°18'0 0.0
2014-Jan-14 13:32N 43°33' E 010°18'0 0.0
2014-Jan-14 12:32N 43°33' E 010°18'0 0.0
2014-Jan-14 11:32N 43°33' E 010°18'0 0.0
2014-Jan-14 10:32N 43°33' E 010°18'0 0.0
2014-Jan-14 09:32N 43°33' E 010°18'0 0.0
2014-Jan-14 08:32N 43°33' E 010°18'0 0.0
2014-Jan-14 07:32N 43°33' E 010°18'0 0.0
2014-Jan-14 06:32N 43°33' E 010°18'0 0.0
2014-Jan-14 05:32N 43°33' E 010°18'0 0.0
2014-Jan-14 04:32N 43°33' E 010°18'0 0.0
2014-Jan-14 03:32N 43°33' E 010°18'0 0.0
2014-Jan-14 02:32N 43°33' E 010°18'0 0.0
2014-Jan-14 01:32N 43°33' E 010°18'0 0.0
2014-Jan-14 00:23N 43°33' E 010°18'0 0.0
2014-Jan-13 23:32N 43°33' E 010°18'0 0.0
2014-Jan-13 22:32N 43°33' E 010°18'0 0.0
2014-Jan-13 21:32N 43°33' E 010°18'0 0.0
2014-Jan-13 20:32N 43°33' E 010°18'0 0.0
2014-Jan-13 19:32N 43°33' E 010°18'0 0.0
2014-Jan-13 18:29N 43°33' E 010°18'0 0.0
2014-Jan-13 17:32N 43°33' E 010°18'0 0.0
2014-Jan-13 16:32N 43°33' E 010°18'0 0.0
2014-Jan-13 15:32N 43°33' E 010°18'0 0.0
2014-Jan-13 14:32N 43°33' E 010°18'0 0.0
2014-Jan-13 13:31N 43°33' E 010°18'0 0.0
2014-Jan-13 12:32N 43°33' E 010°18'0 0.0
2014-Jan-13 11:31N 43°33' E 010°18'0 0.0
2014-Jan-13 10:28N 43°33' E 010°18'0 0.0
2014-Jan-13 09:28N 43°33' E 010°18'0 0.0
2014-Jan-13 08:31N 43°33' E 010°18'0 0.0
2014-Jan-13 07:31N 43°33' E 010°18'0 0.0
2014-Jan-13 06:31N 43°33' E 010°18'1 0.9
2014-Jan-13 05:33N 43°32' E 010°17'2 1.9
2014-Jan-13 04:29N 43°30' E 010°17'0 0.0
2014-Jan-13 03:32N 43°30' E 010°17'0 0.0
2014-Jan-13 02:32N 43°30' E 010°17'0 0.0
2014-Jan-13 01:32N 43°30' E 010°17'0 0.0
2014-Jan-13 00:32N 43°30' E 010°17'0 0.0
2014-Jan-12 23:32N 43°30' E 010°17'0 0.0
2014-Jan-12 22:32N 43°30' E 010°17'0 0.0
2014-Jan-12 21:32N 43°30' E 010°17'0 0.0
2014-Jan-12 20:32N 43°30' E 010°17'0 0.0
2014-Jan-12 19:32N 43°30' E 010°17'0 0.0
2014-Jan-12 18:32N 43°30' E 010°17'0 0.0
2014-Jan-12 17:32N 43°30' E 010°17'0 0.0
2014-Jan-12 16:32N 43°30' E 010°17'0 0.0
2014-Jan-12 15:32N 43°30' E 010°18'0 0.0
2014-Jan-12 14:32N 43°30' E 010°17'0 0.0
2014-Jan-12 13:32N 43°30' E 010°17'0 0.1
2014-Jan-12 12:32N 43°30' E 010°17'6 5.9
2014-Jan-12 11:33N 43°26' E 010°13'1111.1
2014-Jan-12 10:33N 43°15' E 010°09'1210.7
2014-Jan-12 09:27N 43°03' E 010°04'2510.9
2014-Jan-12 07:10N 42°40' E 009°55'  

Dump ship's entire track history